Fai una donazione per la manutenzione ed il rinnovamento della strumentazione meteorologica e per il sito che la ospita.


Webcam more information Webcam


avvertimento per Temporali more information blitzortung!


altri nostri siti meteo:

Previsioni audio clicca per ascoltarePrevisioni audio

RISCHIO INCENDIRischio incendi

PomeziameteoSito sul meteo

MeteopomeziaSito sul meteo

Pomeziameteo DashboardSito sul meteo

Caput FrigorisSito sul meteo

BarcellonameteoSito sul meteo

MeteoipassiSito sul meteo

TortoretometeolidoSito sul meteo

CastelnuovovomanometeoSito sul meteo

MeteogonzagaSito sul meteo

MeteonetworkInvio dai a Meteonetwork

Weather UndergroundInvio dai a Weather Underground



Temporali Da: 15-07-2020 13:00 Fino a: 18:59 Avvertimento per: Temporali Livello: Giallo info button

Report METAR

   
LIRV - Viterbo (it-Mil), Italy
Distanza dalla stazione: W 4 km
Dati ricevuti: 15-07-2020 12:55
Molto nuvoloso  
Molto nuvoloso  
   Vento: Sud 16.7 km/h
Vento: Sud 16.7 km/h
Temperatura: 27°C
Indice di Calore: 27°C
P.to Rugiada: 16°C
Umidita: 51%
Barometro: 1014 hPa
Nuvole: Molto nuvoloso
Visibilita: oltre 10 km
dettagli cloud: Molto nuvoloso 792.5 m
LIRV 151055Z 19009KT 9999 BKN026 27/16 Q1014
LIQN - Rieti, Italy
Distanza dalla stazione: E 59 km
Dati ricevuti: 15-07-2020 12:50
Sereno  
Sereno  
   Vento: Variabile 5.6 km/h
Vento: Variabile 5.6 km/h
Temperatura: 26°C
P.to Rugiada: 12°C
Umidita: 42%
Barometro: 1015 hPa
Visibilita: oltre 10 km
dettagli cloud: Sereno
LIQN 151050Z VRB03KT CAVOK 26/12 Q1015
LIRU - Rome/Urbe (it-Af, Italy
Distanza dalla stazione: S 61 km
Dati ricevuti: 15-07-2020 12:50
Poche nuvole  
Poche nuvole  
   Vento: SW 20.4 km/h
Vento: SW 20.4 km/h
Temperatura: 28°C
Indice di Calore: 28°C
P.to Rugiada: 15°C
Umidita: 45%
Barometro: 1014 hPa
Nuvole: Poche nuvole
Visibilita: oltre 10 km
dettagli cloud: Poche nuvole 1066.8 m
LIRU 151050Z 22011KT 9999 FEW035 28/15 Q1014
LIRG - Guidonia (it-Afb, Italy
Distanza dalla stazione: SE 68 km
Dati ricevuti: 15-07-2020 12:55
Poche nuvole  
Poche nuvole  
   Vento: W 18.5 km/h
Vento: W 18.5 km/h
Temperatura: 28°C
Indice di Calore: 28°C
P.to Rugiada: 17°C
Umidita: 51%
Barometro: 1014 hPa
Nuvole: Poche nuvole
Visibilita: oltre 10 km
dettagli cloud: Poche nuvole 1005.8 m,
Poche nuvole 1066.8 m
LIRG 151055Z 24010KT 9999 FEW033CB FEW035TCU 28/17 Q1014
LIRK - Terminillo Mount, Italy
Distanza dalla stazione: E 70 km
Dati ricevuti: 15-07-2020 12:55
  
  
   Vento: Variabile 9.3 km/h
Vento: Variabile 9.3 km/h
Temperatura: 14°C
P.to Rugiada: 8°C
Umidita: 67%
Barometro: 1023 hPa
LIRK 151055Z AUTO VRB05KT //// 14/08 Q1023
 

Script sviluppato da  Saratoga-weather.org Adattato per il modello da  Weerstation Leuven

Strumentazione usata:

Stazione meteo
Davis VP2

Programma gestore dati meteo
WVIEW

Server per i dati meteo
WDS-5

Davis VP2

WVIEW

WDS-5